Time;durP1;ratioP1;P1;durP2;ratioP2;P2;SDS_P1;SDS_P2;PMS_P1;PMS_P2;Temp;Humidity;BMP_temperature;BMP_pressure;BME280_temperature;BME280_humidity;BME280_pressure;Samples;Min_cycle;Max_cycle;Signal;HPM_P1;HPM_P2
2024/04/09 00:02:04;;;;;;;13.45;7.53;;;;;;;-145.63;56.74;39196.34;4989894;28;20510;-65
2024/04/09 00:05:00;;;;;;;10.57;7.65;;;;;;;-145.63;56.97;39184.59;4982176;28;20439;-65
2024/04/09 00:07:26;;;;;;;10.55;7.60;;;;;;;-145.63;57.37;39210.03;4989227;28;20060;-65
2024/04/09 00:10:06;;;;;;;11.73;7.45;;;;;;;-145.63;56.71;39210.03;4986292;28;20082;-66
2024/04/09 00:12:54;;;;;;;11.45;7.97;;;;;;;-145.63;56.50;39157.22;4990673;28;20476;-64
2024/04/09 00:15:57;;;;;;;9.00;7.68;;;;;;;-145.63;56.48;39174.84;4990898;28;20128;-65
2024/04/09 00:18:38;;;;;;;9.57;7.50;;;;;;;-145.63;56.66;39145.50;4990933;28;20065;-65
2024/04/09 00:21:30;;;;;;;13.02;8.27;;;;;;;-145.63;56.74;39176.78;4991931;28;20518;-66
2024/04/09 00:24:08;;;;;;;9.45;7.38;;;;;;;-145.63;57.20;39192.44;4990072;28;20038;-65
2024/04/09 00:26:55;;;;;;;11.68;7.40;;;;;;;-145.63;56.91;39180.69;4983932;28;20421;-65
2024/04/09 00:29:39;;;;;;;8.75;6.45;;;;;;;-145.63;56.33;39212.00;4991629;28;20049;-66
2024/04/09 00:32:13;;;;;;;7.32;5.72;;;;;;;-145.63;55.46;39192.44;4990972;28;20042;-66
2024/04/09 00:34:48;;;;;;;10.45;7.68;;;;;;;-145.63;55.98;39188.53;4991278;28;20054;-66
2024/04/09 00:37:35;;;;;;;12.32;7.10;;;;;;;-145.63;56.17;39200.25;4991301;28;20042;-65
2024/04/09 00:40:02;;;;;;;12.75;6.63;;;;;;;-145.63;55.47;39192.44;4983776;28;20034;-68
2024/04/09 00:42:32;;;;;;;13.60;6.68;;;;;;;-145.63;55.66;39206.13;4991312;28;20030;-67
2024/04/09 00:45:10;;;;;;;9.88;7.45;;;;;;;-145.63;56.10;39192.44;4991275;28;20034;-66
2024/04/09 00:48:01;;;;;;;9.40;5.75;;;;;;;-145.63;55.24;39194.38;4989038;28;20092;-65
2024/04/09 00:50:48;;;;;;;9.25;5.78;;;;;;;-145.63;54.42;39202.22;4981397;28;20058;-65
2024/04/09 00:53:22;;;;;;;11.93;6.10;;;;;;;-145.63;54.55;39192.44;4990463;28;20066;-65
2024/04/09 00:55:57;;;;;;;9.68;5.70;;;;;;;-145.63;54.53;39165.06;4991943;28;20026;-66
2024/04/09 00:58:24;;;;;;;7.28;5.43;;;;;;;-145.63;54.04;39159.19;4986138;28;20054;-64
2024/04/09 01:00:59;;;;;;;9.70;5.63;;;;;;;-145.63;54.41;39206.13;4986783;28;20126;-65
2024/04/09 01:03:48;;;;;;;8.85;5.75;;;;;;;-145.63;55.06;39190.47;4982172;28;20459;-66
2024/04/09 01:09:39;;;;;;;7.25;4.80;;;;;;;-145.63;53.96;39223.72;4988966;28;20045;-65
2024/04/09 01:12:25;;;;;;;9.20;5.00;;;;;;;-145.63;53.93;39194.38;4991719;28;20177;-65
2024/04/09 01:15:03;;;;;;;10.70;5.70;;;;;;;-145.63;54.40;39165.06;4983845;28;20038;-64
2024/04/09 01:17:38;;;;;;;9.27;5.07;;;;;;;-145.63;54.26;39196.34;4991109;28;20045;-65
2024/04/09 01:20:07;;;;;;;7.70;5.53;;;;;;;-145.63;55.28;39204.16;4990312;28;20042;-66
2024/04/09 01:22:39;;;;;;;7.18;4.68;;;;;;;-145.63;54.65;39208.06;4976206;28;20619;-66
2024/04/09 01:25:15;;;;;;;7.75;5.57;;;;;;;-145.63;54.72;39219.81;4981115;28;20084;-66
2024/04/09 01:27:49;;;;;;;12.80;5.43;;;;;;;-145.63;54.48;39208.06;4989647;28;20038;-66
2024/04/09 01:30:55;;;;;;;7.93;5.03;;;;;;;-145.63;54.35;39170.91;4982320;28;20039;-65
2024/04/09 01:33:27;;;;;;;6.85;4.65;;;;;;;-145.63;54.49;39208.06;4977111;28;20031;-64
2024/04/09 01:36:21;;;;;;;9.13;5.18;;;;;;;-145.63;53.78;39180.69;4986080;28;20093;-66
2024/04/09 01:38:46;;;;;;;5.53;4.30;;;;;;;-145.63;53.78;39192.44;4977599;28;20041;-66
2024/04/09 01:41:14;;;;;;;9.18;5.30;;;;;;;-145.63;53.85;39200.25;4983883;28;20117;-64
2024/04/09 01:43:43;;;;;;;6.93;4.90;;;;;;;-145.63;53.82;39170.91;4981326;28;20031;-65
2024/04/09 01:46:52;;;;;;;7.05;5.03;;;;;;;-145.63;54.29;39184.59;4986451;28;20186;-65
2024/04/09 01:49:25;;;;;;;6.70;4.95;;;;;;;-145.63;54.33;39143.53;4990216;28;20039;-64
2024/04/09 01:52:11;;;;;;;6.05;5.00;;;;;;;-145.63;54.35;39213.94;4987349;28;20031;-66
2024/04/09 01:54:55;;;;;;;6.47;5.05;;;;;;;-145.63;54.88;39206.13;4984879;28;20054;-65
2024/04/09 01:57:21;;;;;;;7.88;4.90;;;;;;;-145.63;54.28;39213.94;4990381;28;20058;-65
2024/04/09 02:00:11;;;;;;;10.48;5.63;;;;;;;-145.63;54.82;39188.53;4989169;28;20111;-65
2024/04/09 02:05:45;;;;;;;10.05;6.32;;;;;;;-145.63;54.55;39223.72;4998315;28;20034;-66
2024/04/09 02:17:18;;;;;;;7.45;4.93;;;;;;;-145.63;55.34;39178.75;4993890;28;20038;-66
2024/04/09 02:20:13;;;;;;;10.40;5.35;;;;;;;-145.63;55.04;39182.66;4990192;28;20045;-65
2024/04/09 02:22:42;;;;;;;9.30;5.10;;;;;;;-145.63;55.02;39190.47;4980050;28;20031;-66
2024/04/09 02:25:19;;;;;;;7.72;5.90;;;;;;;-145.63;54.54;39200.25;4975251;28;20031;-65
2024/04/09 02:27:51;;;;;;;8.55;5.32;;;;;;;-145.63;54.21;39190.47;4976092;28;20062;-65
2024/04/09 02:30:31;;;;;;;5.90;4.05;;;;;;;-145.63;54.00;39204.16;4993623;28;20034;-66
2024/04/09 02:33:21;;;;;;;7.30;5.10;;;;;;;-145.63;53.25;39176.78;4993385;28;20459;-66
2024/04/09 02:36:04;;;;;;;7.35;4.30;;;;;;;-145.63;52.92;39204.16;4992980;28;20026;-66
2024/04/09 02:38:43;;;;;;;7.43;4.60;;;;;;;-145.63;53.07;39215.91;4993544;28;20042;-65
2024/04/09 02:41:16;;;;;;;7.55;4.45;;;;;;;-145.63;52.36;39184.59;4993017;28;20026;-67
2024/04/09 02:44:04;;;;;;;6.18;4.00;;;;;;;-145.63;52.38;39202.22;4985691;28;20045;-65
2024/04/09 02:46:49;;;;;;;8.52;4.15;;;;;;;-145.63;52.58;39176.78;4993617;28;20041;-65
2024/04/09 02:49:30;;;;;;;7.07;4.50;;;;;;;-145.63;52.48;39167.00;5002706;28;20043;-65
2024/04/09 02:51:59;;;;;;;7.63;4.22;;;;;;;-145.63;52.46;39133.75;4991757;28;20134;-65
2024/04/09 02:54:25;;;;;;;5.60;4.10;;;;;;;-145.63;52.73;39200.25;4993190;28;20121;-66
2024/04/09 02:57:02;;;;;;;9.38;5.38;;;;;;;-145.63;51.94;39172.88;4990209;28;20122;-65
2024/04/09 02:59:31;;;;;;;6.32;4.80;;;;;;;-145.63;52.31;39206.13;4979548;28;20085;-66
2024/04/09 03:01:59;;;;;;;10.20;4.95;;;;;;;-145.63;52.61;39212.00;5000162;28;20765;-66
2024/04/09 03:04:39;;;;;;;7.80;4.43;;;;;;;-145.63;51.64;39176.78;4991748;28;20356;-66
2024/04/09 03:07:19;;;;;;;8.43;4.20;;;;;;;-145.63;52.11;39131.81;4989172;28;20047;-65
2024/04/09 03:10:04;;;;;;;9.73;4.93;;;;;;;-145.63;52.25;39190.47;4982119;28;20037;-65
2024/04/09 03:12:40;;;;;;;8.23;4.95;;;;;;;-145.63;52.11;39192.44;4991701;28;20080;-65
2024/04/09 03:15:26;;;;;;;11.60;5.45;;;;;;;-145.63;52.39;39161.13;4982788;28;20076;-67
2024/04/09 03:21:16;;;;;;;8.40;5.63;;;;;;;-145.63;52.70;39223.72;4979540;28;20026;-66
2024/04/09 03:23:42;;;;;;;11.07;5.63;;;;;;;-145.63;52.58;39184.59;4993046;28;20034;-65
2024/04/09 03:26:14;;;;;;;10.55;5.10;;;;;;;-145.63;53.17;39213.94;4993380;28;20526;-66
2024/04/09 03:28:58;;;;;;;9.10;5.43;;;;;;;-145.63;53.10;39190.47;4982799;28;20042;-66
2024/04/09 03:31:25;;;;;;;6.30;4.95;;;;;;;-145.63;53.37;39176.78;4981739;28;20042;-66
2024/04/09 03:34:18;;;;;;;7.55;5.22;;;;;;;-145.63;52.96;39188.53;4992538;28;20022;-66
2024/04/09 03:36:50;;;;;;;8.02;5.18;;;;;;;-145.63;52.73;39114.22;4990866;28;20414;-64
2024/04/09 03:39:22;;;;;;;6.60;4.90;;;;;;;-145.63;52.70;39186.56;4992646;28;20101;-64
2024/04/09 03:42:09;;;;;;;8.10;5.55;;;;;;;-145.63;52.96;39200.25;4985942;28;20045;-65
2024/04/09 03:44:43;;;;;;;7.38;5.18;;;;;;;-145.63;52.88;39204.16;4987741;28;20042;-63
2024/04/09 03:47:12;;;;;;;8.38;4.65;;;;;;;-145.63;53.21;39165.06;4991941;28;20030;-65
2024/04/09 03:49:47;;;;;;;7.90;5.65;;;;;;;-145.63;52.65;39176.78;4982411;28;20100;-64
2024/04/09 03:52:12;;;;;;;8.48;4.95;;;;;;;-145.63;52.68;39155.28;4991763;28;20038;-66
2024/04/09 03:55:06;;;;;;;7.07;4.60;;;;;;;-145.63;52.21;39168.97;4991588;28;20030;-65
2024/04/09 03:57:44;;;;;;;9.68;5.32;;;;;;;-145.63;52.52;39149.41;4992514;28;20054;-65
2024/04/09 04:00:18;;;;;;;7.20;5.53;;;;;;;-145.63;52.69;39125.94;4990691;28;20065;-67
2024/04/09 04:02:43;;;;;;;7.30;5.38;;;;;;;-145.63;52.48;39127.91;4997867;28;20053;-66
2024/04/09 04:05:14;;;;;;;9.65;5.63;;;;;;;-145.63;52.10;39122.03;4988027;28;20050;-66
2024/04/09 04:07:48;;;;;;;7.95;5.40;;;;;;;-145.63;52.08;39163.09;4991956;28;20037;-66
2024/04/09 04:10:36;;;;;;;8.10;5.93;;;;;;;-145.63;52.09;39137.69;4985521;28;20050;-65
2024/04/09 04:13:02;;;;;;;8.63;6.22;;;;;;;-145.63;52.36;39133.75;4972568;28;20042;-65
2024/04/09 04:15:58;;;;;;;7.65;6.00;;;;;;;-145.63;52.75;39149.41;4992875;28;20028;-66
2024/04/09 04:18:47;;;;;;;9.98;6.82;;;;;;;-145.63;53.05;39133.75;4991013;28;20053;-64
2024/04/09 04:21:20;;;;;;;12.27;7.00;;;;;;;-145.63;52.65;39149.41;4990772;28;20031;-66
2024/04/09 04:24:10;;;;;;;11.30;6.80;;;;;;;-145.63;52.41;39145.50;4979650;28;20637;-66
2024/04/09 04:26:54;;;;;;;12.25;7.22;;;;;;;-145.63;52.46;39094.66;4992102;28;20045;-66
2024/04/09 04:29:34;;;;;;;10.48;7.70;;;;;;;-145.63;52.34;39133.75;4984977;28;20030;-66
2024/04/09 04:32:36;;;;;;;12.40;7.10;;;;;;;-145.63;52.78;39133.75;4991854;28;20034;-66
2024/04/09 04:38:25;;;;;;;9.60;7.07;;;;;;;-145.63;52.62;39112.25;4979174;28;20118;-66
2024/04/09 04:41:07;;;;;;;12.23;7.30;;;;;;;-145.63;52.10;39106.38;4995621;28;20084;-65
2024/04/09 04:43:55;;;;;;;9.00;7.28;;;;;;;-145.63;52.47;39063.34;4990644;28;20073;-64
2024/04/09 04:46:24;;;;;;;13.50;10.75;;;;;;;-145.63;52.93;39088.78;4991238;28;20034;-66
2024/04/09 04:48:52;;;;;;;11.35;7.97;;;;;;;-145.63;52.58;39098.56;4991280;28;20026;-65
2024/04/09 04:51:27;;;;;;;12.48;7.75;;;;;;;-145.63;52.05;39086.81;4988843;28;20041;-66
2024/04/09 04:53:58;;;;;;;11.70;8.02;;;;;;;-145.63;51.68;39116.16;4984878;28;20035;-65
2024/04/09 04:59:26;;;;;;;;;;;;;;;-145.63;52.04;39122.03;4991679;28;20030;-65
2024/04/09 05:02:30;;;;;;;10.95;7.82;;;;;;;-145.63;52.05;39110.28;5000952;28;19925;-65
2024/04/09 05:05:02;;;;;;;12.20;7.07;;;;;;;-145.63;52.47;39141.59;4981893;28;20042;-66
2024/04/09 05:07:55;;;;;;;11.07;7.00;;;;;;;-145.63;52.56;39145.50;4987764;28;20091;-66
2024/04/09 05:10:21;;;;;;;11.18;6.90;;;;;;;-145.63;53.08;39133.75;4996123;28;20494;-68
2024/04/09 05:13:06;;;;;;;11.23;7.10;;;;;;;-145.63;52.90;39137.69;4990866;28;20384;-66
2024/04/09 05:15:57;;;;;;;10.35;6.50;;;;;;;-145.63;52.81;39116.16;4988213;28;20463;-66
2024/04/09 05:18:45;;;;;;;9.63;6.97;;;;;;;-145.63;53.06;39102.47;4973928;28;20042;-66
2024/04/09 05:21:10;;;;;;;10.63;6.50;;;;;;;-145.63;52.93;39120.06;4980429;28;20421;-66
2024/04/09 05:23:51;;;;;;;9.85;6.30;;;;;;;-145.63;53.36;39131.81;4990724;28;20035;-65
2024/04/09 05:26:28;;;;;;;13.25;6.10;;;;;;;-145.63;52.70;39118.13;4986682;28;20074;-66
2024/04/09 05:29:12;;;;;;;8.50;5.80;;;;;;;-145.63;52.13;39086.81;4981186;28;20031;-65
2024/04/09 05:32:02;;;;;;;8.18;6.40;;;;;;;-145.63;52.30;39137.69;4976039;28;20038;-65
2024/04/09 05:34:31;;;;;;;12.57;6.70;;;;;;;-145.63;52.36;39198.31;4992680;28;20085;-66
2024/04/09 05:40:17;;;;;;;10.93;6.60;;;;;;;-145.63;51.90;39137.69;4993643;28;20483;-67
2024/04/09 05:42:55;;;;;;;7.75;4.40;;;;;;;-145.63;51.25;39106.38;4993277;28;20034;-66
2024/04/09 05:45:38;;;;;;;8.43;4.32;;;;;;;-145.63;50.88;39129.84;4994332;28;20033;-66
2024/04/09 05:48:25;;;;;;;11.73;4.70;;;;;;;-145.63;50.78;39129.84;4993868;28;20042;-66
2024/04/09 05:50:56;;;;;;;11.48;4.93;;;;;;;-145.63;50.59;39153.31;4993318;28;20038;-66
2024/04/09 05:53:34;;;;;;;8.27;4.57;;;;;;;-145.63;50.59;39159.19;4993656;28;20066;-66
2024/04/09 05:56:03;;;;;;;13.70;5.45;;;;;;;-145.63;50.77;39125.94;5004033;28;20132;-65
2024/04/09 05:59:09;;;;;;;8.23;4.90;;;;;;;-145.63;50.34;39090.75;4993687;28;20043;-66
2024/04/09 06:05:05;;;;;;;12.25;4.95;;;;;;;-145.63;49.89;39118.13;4993641;28;20125;-66
2024/04/09 06:08:04;;;;;;;11.35;5.00;;;;;;;-145.63;49.63;39110.28;4993875;28;20070;-65
2024/04/09 06:10:38;;;;;;;10.55;5.00;;;;;;;-145.63;49.48;39069.22;4989412;28;20061;-66
2024/04/09 06:13:04;;;;;;;13.77;5.60;;;;;;;-145.63;49.25;39063.34;4987195;28;20027;-65
2024/04/09 06:15:39;;;;;;;8.68;5.53;;;;;;;-145.63;49.39;39045.75;4980929;28;20049;-66
2024/04/09 06:21:14;;;;;;;13.75;9.52;;;;;;;-145.63;48.01;39043.81;4992858;28;20110;-67
2024/04/09 06:24:26;;;;;;;10.27;4.88;;;;;;;-145.63;47.93;39022.28;4993143;28;20096;-65
2024/04/09 06:27:03;;;;;;;11.13;4.32;;;;;;;-145.63;47.73;39024.25;4992109;28;20046;-65
2024/04/09 06:29:32;;;;;;;;;;;;;;;-145.63;47.75;39039.88;4980685;28;20031;-65
2024/04/09 06:31:57;;;;;;;9.63;4.40;;;;;;;-145.63;48.27;39069.22;4974840;28;19914;-66
2024/04/09 06:34:42;;;;;;;11.20;4.78;;;;;;;-145.63;47.25;38961.66;4979863;28;20104;-66
2024/04/09 06:37:35;;;;;;;12.20;4.78;;;;;;;-145.63;45.68;39008.59;4994024;28;20038;-67
2024/04/09 06:40:10;;;;;;;12.50;4.57;;;;;;;-145.63;46.12;39002.72;4991289;28;20032;-67
2024/04/09 06:42:54;;;;;;;7.97;4.13;;;;;;;-145.63;45.53;38942.13;4981664;28;20143;-66
2024/04/09 06:45:43;;;;;;;10.65;4.57;;;;;;;-145.63;45.24;38949.94;4973108;28;20073;-66
2024/04/09 06:48:46;;;;;;;11.40;5.25;;;;;;;-145.63;46.06;38928.44;4973671;28;20117;-67
2024/04/09 06:51:33;;;;;;;8.27;4.85;;;;;;;-145.63;45.09;38916.69;4985015;28;20039;-67
2024/04/09 06:53:59;;;;;;;11.00;5.38;;;;;;;-145.63;45.59;38934.28;4993042;28;20056;-68
2024/04/09 06:59:54;;;;;;;12.77;7.13;;;;;;;-145.63;44.75;38953.84;4993758;28;20141;-66
2024/04/09 07:05:12;;;;;;;8.95;4.70;;;;;;;-145.63;44.20;38922.56;4984658;28;20030;-65
2024/04/09 07:07:50;;;;;;;9.35;4.80;;;;;;;-145.63;44.30;38930.38;4986992;28;20126;-66
2024/04/09 07:10:54;;;;;;;9.88;4.63;;;;;;;-145.63;42.88;38813.03;4986170;28;20428;-66
2024/04/09 07:13:34;;;;;;;12.60;4.70;;;;;;;-145.63;42.63;38858.03;4987657;28;20113;-67
2024/04/09 07:16:03;;;;;;;19.02;4.57;;;;;;;-145.63;42.16;38803.28;4978407;28;20510;-66
2024/04/09 07:18:31;;;;;;;8.75;4.60;;;;;;;-145.63;41.35;38820.88;4972340;28;20369;-66
2024/04/09 07:21:25;;;;;;;13.07;4.53;;;;;;;-145.63;41.61;38768.06;4974082;28;20061;-68
2024/04/09 07:24:05;;;;;;;9.77;4.45;;;;;;;-145.63;41.17;38818.91;4989779;28;20058;-65
2024/04/09 07:27:08;;;;;;;11.10;4.57;;;;;;;-145.63;42.03;38816.97;4978250;28;20030;-65
2024/04/09 07:29:57;;;;;;;11.05;4.18;;;;;;;-145.63;41.64;38793.50;4990616;28;20034;-64
2024/04/09 07:32:29;;;;;;;15.55;5.25;;;;;;;-145.63;41.52;38801.31;4993274;28;20093;-65
2024/04/09 07:35:32;;;;;;;14.60;4.90;;;;;;;-145.63;41.69;38807.19;4984178;28;20034;-66
2024/04/09 07:38:41;;;;;;;14.15;4.82;;;;;;;-145.63;41.81;38832.59;4983253;28;20076;-64
2024/04/09 07:42:02;;;;;;;11.15;5.38;;;;;;;-145.63;42.20;38848.25;4980062;28;20105;-66
2024/04/09 07:44:46;;;;;;;13.02;5.00;;;;;;;-145.63;41.63;38832.59;4978114;28;20045;-66
2024/04/09 07:47:17;;;;;;;16.85;5.95;;;;;;;-145.63;42.31;38859.97;4977749;28;20037;-64
2024/04/09 07:49:53;;;;;;;12.45;5.25;;;;;;;-145.63;42.08;38840.44;4980805;28;20049;-65
2024/04/09 07:52:43;;;;;;;16.25;5.70;;;;;;;-145.63;42.71;38879.53;4993079;28;20095;-67
2024/04/09 08:01:23;;;;;;;11.38;5.53;;;;;;;-145.63;41.82;38824.78;4973658;28;20042;-66
2024/04/09 08:03:48;;;;;;;11.80;5.32;;;;;;;-145.63;41.82;38836.50;4973366;28;20078;-65
2024/04/09 08:06:17;;;;;;;12.88;4.93;;;;;;;-145.63;41.96;38816.97;4987776;28;20038;-66
2024/04/09 08:08:43;;;;;;;11.63;5.70;;;;;;;-145.63;41.79;38856.06;4991959;28;20034;-67
2024/04/09 08:11:27;;;;;;;16.60;5.60;;;;;;;-145.63;41.30;38836.50;4988211;28;20510;-67
2024/04/09 08:20:10;;;;;;;14.45;5.60;;;;;;;-145.63;40.85;38754.38;4983557;28;20037;-65
2024/04/09 08:23:01;;;;;;;11.18;4.72;;;;;;;-145.63;40.65;38770.03;4991507;28;20447;-65
2024/04/09 08:26:09;;;;;;;15.15;6.13;;;;;;;-145.63;40.02;38748.50;4986937;28;20047;-63
2024/04/09 08:28:41;;;;;;;11.00;4.93;;;;;;;-145.63;39.53;38736.78;4977235;28;20027;-67
2024/04/09 08:31:11;;;;;;;20.65;5.63;;;;;;;-145.63;39.36;38680.06;4987788;28;20061;-65
2024/04/09 08:33:52;;;;;;;15.50;5.55;;;;;;;-145.63;38.48;38629.22;4975767;28;20038;-64
2024/04/09 08:36:22;;;;;;;15.23;5.40;;;;;;;-145.63;37.99;38662.47;4980652;28;20034;-66
2024/04/09 08:38:58;;;;;;;15.88;6.07;;;;;;;-145.63;37.46;38631.19;4986999;28;20023;-66
2024/04/09 08:41:42;;;;;;;14.23;5.00;;;;;;;-145.63;36.95;38648.78;4980276;28;20034;-65
2024/04/09 08:44:36;;;;;;;12.77;5.75;;;;;;;-145.63;36.87;38617.50;4984150;28;20034;-65
2024/04/09 08:47:08;;;;;;;14.27;5.70;;;;;;;-145.63;37.40;38603.81;4981680;28;20539;-65
2024/04/09 08:49:54;;;;;;;11.07;5.18;;;;;;;-145.63;36.87;38590.13;4989749;28;20045;-66
2024/04/09 08:52:56;;;;;;;22.35;6.20;;;;;;;-145.63;36.23;38525.59;4992020;28;20045;-67
2024/04/09 08:55:38;;;;;;;15.75;5.95;;;;;;;-145.63;36.63;38449.34;5002892;28;20035;-66
2024/04/09 08:58:13;;;;;;;15.35;6.20;;;;;;;-145.63;35.85;38551.03;4990234;28;20415;-65
2024/04/09 09:01:06;;;;;;;17.10;5.55;;;;;;;-145.63;37.12;38603.81;4990369;28;20129;-65
2024/04/09 09:03:55;;;;;;;10.75;5.05;;;;;;;-145.63;36.67;38588.16;4971879;28;20146;-66
2024/04/09 09:06:50;;;;;;;11.35;5.88;;;;;;;-145.63;36.60;38588.16;4971193;28;20367;-65
2024/04/09 09:09:27;;;;;;;14.68;6.25;;;;;;;-145.63;37.01;38574.47;4990835;28;20044;-66
2024/04/09 09:12:04;;;;;;;12.68;5.20;;;;;;;-145.63;36.61;38554.94;4988541;28;20030;-66
2024/04/09 09:14:38;;;;;;;11.63;5.50;;;;;;;-145.63;37.42;38609.69;4983692;28;20039;-68
2024/04/09 09:17:35;;;;;;;11.60;5.13;;;;;;;-145.63;37.30;38605.78;4994397;28;20038;-66
2024/04/09 09:20:25;;;;;;;12.30;5.55;;;;;;;-145.63;37.33;38570.56;4990292;28;20034;-68
2024/04/09 09:23:06;;;;;;;14.20;5.90;;;;;;;-145.63;37.17;38613.59;4985900;28;20046;-67
2024/04/09 09:29:07;;;;;;;11.43;4.88;;;;;;;-145.63;37.28;38617.50;4991130;28;20042;-67
2024/04/09 09:31:43;;;;;;;15.35;5.63;;;;;;;-145.63;38.20;38621.41;4994583;28;20058;-67
2024/04/09 09:34:40;;;;;;;15.20;6.10;;;;;;;-145.63;38.16;38642.91;4992531;28;20122;-66
2024/04/09 09:37:43;;;;;;;14.80;6.10;;;;;;;-145.63;38.79;38640.97;4976853;28;20363;-69
2024/04/09 09:40:15;;;;;;;11.55;5.40;;;;;;;-145.63;38.90;38640.97;4993003;28;20397;-69
2024/04/09 09:42:59;;;;;;;12.02;5.70;;;;;;;-145.63;38.39;38639.00;4975642;28;20822;-68
2024/04/09 09:45:47;;;;;;;17.95;6.70;;;;;;;-145.63;38.76;38642.91;4975012;28;20121;-68
2024/04/09 09:48:53;;;;;;;13.07;5.60;;;;;;;-145.63;39.19;38637.06;4975879;28;20041;-67
2024/04/09 09:55:10;;;;;;;7.47;5.43;;;;;;;-145.63;38.44;38633.16;4975354;28;20057;-67
2024/04/09 09:57:44;;;;;;;11.10;6.00;;;;;;;-145.63;38.84;38644.88;4994649;28;20057;-70
2024/04/09 10:00:20;;;;;;;13.52;6.03;;;;;;;-145.63;39.37;38639.00;4994727;28;20141;-69
2024/04/09 10:02:58;;;;;;;13.15;6.78;;;;;;;-145.63;38.71;38605.78;4980322;28;20048;-68
2024/04/09 10:12:07;;;;;;;15.30;6.97;;;;;;;-145.63;39.52;38652.69;4982856;28;20030;-67
2024/04/09 10:14:40;;;;;;;13.13;6.83;;;;;;;-145.63;38.73;38629.22;4974949;28;20030;-67
2024/04/09 10:17:12;;;;;;;14.98;6.90;;;;;;;-145.63;39.08;38644.88;4983356;28;20379;-67
2024/04/09 10:19:37;;;;;;;15.55;7.28;;;;;;;-145.63;38.99;38627.28;4989443;28;20170;-67
2024/04/09 10:22:03;;;;;;;12.07;7.20;;;;;;;-145.63;39.03;38594.03;4989587;28;20045;-66
2024/04/09 10:36:58;;;;;;;16.77;7.88;;;;;;;-145.63;39.85;38693.75;4975186;28;20074;-67
2024/04/09 10:39:24;;;;;;;15.05;7.70;;;;;;;-145.63;40.12;38699.63;4976481;28;20037;-65
2024/04/09 10:42:11;;;;;;;18.55;7.95;;;;;;;-145.63;39.42;38670.28;4973064;28;20363;-67
2024/04/09 10:44:49;;;;;;;15.07;7.93;;;;;;;-145.63;39.92;38723.09;4988066;28;20026;-66
2024/04/09 10:47:36;;;;;;;18.75;7.57;;;;;;;-145.63;40.36;38691.81;4993282;28;20039;-66
2024/04/09 10:50:42;;;;;;;14.20;7.45;;;;;;;-145.63;40.44;38672.25;4993000;28;20044;-68
2024/04/09 10:53:42;;;;;;;16.52;7.53;;;;;;;-145.63;39.94;38654.66;4993213;28;20042;-68
2024/04/09 10:56:17;;;;;;;16.23;7.35;;;;;;;-145.63;40.15;38633.16;4983821;28;20126;-69
2024/04/09 10:58:55;;;;;;;13.05;7.72;;;;;;;-145.63;40.57;38656.59;4979738;28;20104;-65
2024/04/09 11:01:27;;;;;;;15.18;7.93;;;;;;;-145.63;40.68;38684.00;4993190;28;20046;-67
2024/04/09 11:04:30;;;;;;;14.02;7.43;;;;;;;-145.63;40.76;38707.44;4993841;28;20053;-67
2024/04/09 11:07:12;;;;;;;19.05;8.27;;;;;;;-145.63;41.19;38719.19;4974346;28;20415;-66
2024/04/09 11:09:43;;;;;;;13.57;7.20;;;;;;;-145.63;41.67;38742.66;4988488;28;20770;-66
2024/04/09 11:12:09;;;;;;;24.85;8.73;;;;;;;-145.63;41.45;38699.63;4996017;28;20386;-67
2024/04/09 11:15:19;;;;;;;15.50;6.65;;;;;;;-145.63;41.71;38736.78;4996213;28;20034;-66
2024/04/09 11:21:34;;;;;;;13.27;6.82;;;;;;;-145.63;42.19;38715.28;4988268;28;20045;-67
2024/04/09 11:24:08;;;;;;;13.68;7.20;;;;;;;-145.63;43.26;38744.59;4992651;28;20071;-66
2024/04/09 11:26:34;;;;;;;15.55;7.55;;;;;;;-145.63;43.34;38738.75;4981191;28;20037;-67
2024/04/09 11:28:59;;;;;;;17.25;7.15;;;;;;;-145.63;44.02;38742.66;4981263;28;20033;-68
2024/04/09 11:31:56;;;;;;;16.52;7.07;;;;;;;-145.63;44.29;38742.66;4989472;28;20078;-67
2024/04/09 11:34:43;;;;;;;15.65;7.72;;;;;;;-145.63;44.14;38766.13;4975580;28;20030;-68
2024/04/09 11:37:27;;;;;;;17.02;7.80;;;;;;;-145.63;45.02;38740.69;4993081;28;20105;-68
2024/04/09 11:40:14;;;;;;;14.85;7.22;;;;;;;-145.63;45.44;38713.31;4993226;28;20035;-67
2024/04/09 11:42:48;;;;;;;10.50;7.63;;;;;;;-145.63;45.41;38715.28;4993200;28;20038;-67
2024/04/09 11:45:35;;;;;;;13.07;7.50;;;;;;;-145.63;44.21;38699.63;4973490;28;20158;-67
2024/04/09 11:48:05;;;;;;;10.52;7.70;;;;;;;-145.63;44.52;38766.13;4984220;28;20085;-68
2024/04/09 11:51:04;;;;;;;11.38;8.23;;;;;;;-145.63;44.37;38734.81;4987369;28;20050;-69
2024/04/09 11:54:10;;;;;;;15.20;8.32;;;;;;;-145.63;44.21;38764.16;4979308;28;20062;-67
2024/04/09 11:56:41;;;;;;;14.63;7.88;;;;;;;-145.63;44.35;38738.75;4985086;28;20041;-67
2024/04/09 11:59:19;;;;;;;17.70;8.52;;;;;;;-145.63;43.39;38715.28;4984112;28;20051;-67
2024/04/09 12:02:00;;;;;;;15.38;8.10;;;;;;;-145.63;43.97;38680.06;4983681;28;20046;-67
2024/04/09 12:04:40;;;;;;;11.57;7.57;;;;;;;-145.63;42.97;38633.16;4989866;28;20038;-67
2024/04/09 12:07:22;;;;;;;11.88;7.50;;;;;;;-145.63;43.19;38674.22;4986771;28;20026;-69
2024/04/09 12:10:24;;;;;;;15.25;7.90;;;;;;;-145.63;42.86;38705.50;4974511;28;20546;-70
2024/04/09 12:12:51;;;;;;;13.77;7.30;;;;;;;-145.63;43.29;38770.03;4991893;28;20042;-67
2024/04/09 12:15:19;;;;;;;13.52;7.97;;;;;;;-145.63;43.00;38766.13;4978419;28;20029;-67
2024/04/09 12:17:57;;;;;;;17.75;8.30;;;;;;;-145.63;42.54;38695.72;4992401;28;20399;-65
2024/04/09 12:23:49;;;;;;;15.60;8.10;;;;;;;-145.63;43.57;38740.69;4991789;28;20133;-66
2024/04/09 12:26:21;;;;;;;14.90;8.82;;;;;;;-145.63;44.14;38744.59;4983377;28;20368;-66
2024/04/09 12:28:59;;;;;;;15.38;8.20;;;;;;;-145.63;44.09;38738.75;4977242;28;20042;-65
2024/04/09 12:34:30;;;;;;;12.30;8.70;;;;;;;-145.63;44.10;38732.88;4976118;28;20033;-66
2024/04/09 12:37:07;;;;;;;17.42;8.68;;;;;;;-145.63;43.61;38728.97;4989601;28;20083;-67
2024/04/09 12:39:52;;;;;;;14.15;8.82;;;;;;;-145.63;44.20;38766.13;4972864;28;20732;-67
2024/04/09 12:42:26;;;;;;;15.90;8.38;;;;;;;-145.63;44.63;38793.50;4982989;28;20185;-68
2024/04/09 12:45:07;;;;;;;10.32;7.65;;;;;;;-145.63;44.59;38770.03;4977195;28;20093;-67
2024/04/09 12:47:33;;;;;;;16.40;9.40;;;;;;;-145.63;43.83;38768.06;4991652;28;20479;-66
2024/04/09 12:50:14;;;;;;;12.05;8.48;;;;;;;-145.63;44.09;38785.66;4998071;28;20459;-67
2024/04/09 12:52:51;;;;;;;15.25;9.25;;;;;;;-145.63;44.45;38807.19;4977947;28;20034;-67
2024/04/09 12:55:47;;;;;;;13.48;9.10;;;;;;;-145.63;44.77;38801.31;4982834;28;20030;-66
2024/04/09 12:58:29;;;;;;;15.05;8.57;;;;;;;-145.63;45.00;38727.00;4974859;28;20114;-66
2024/04/09 13:00:58;;;;;;;20.85;10.00;;;;;;;-145.63;45.01;38781.75;4972124;28;20062;-67
2024/04/09 13:06:46;;;;;;;13.63;8.75;;;;;;;-145.63;44.44;38781.75;4991601;28;20045;-66
2024/04/09 13:09:24;;;;;;;12.85;8.63;;;;;;;-145.63;44.46;38736.78;4990592;28;20031;-66
2024/04/09 13:12:11;;;;;;;15.90;8.57;;;;;;;-145.63;44.06;38781.75;4989082;28;20048;-65
2024/04/09 13:18:16;;;;;;;14.07;8.80;;;;;;;-145.63;44.23;38752.44;4989555;28;20033;-65
2024/04/09 13:20:59;;;;;;;16.80;9.45;;;;;;;-145.63;44.26;38744.59;4985351;28;20034;-66
2024/04/09 13:23:34;;;;;;;18.73;10.15;;;;;;;-145.63;44.62;38748.50;4981202;28;20110;-66
2024/04/09 13:26:05;;;;;;;15.32;9.15;;;;;;;-145.63;44.17;38771.97;4978606;28;20031;-65
2024/04/09 13:31:43;;;;;;;11.77;8.98;;;;;;;-145.63;44.00;38740.69;4971709;28;20039;-66
2024/04/09 13:34:17;;;;;;;13.18;8.75;;;;;;;-145.63;44.06;38687.91;4978223;28;20476;-65
2024/04/09 13:37:28;;;;;;;12.55;8.95;;;;;;;-145.63;43.64;38740.69;4983501;28;20140;-66
2024/04/09 13:40:15;;;;;;;14.98;9.02;;;;;;;-145.63;43.77;38717.22;4986413;28;20125;-66
2024/04/09 13:43:06;;;;;;;15.25;8.13;;;;;;;-145.63;43.76;38748.50;4982032;28;20363;-66
2024/04/09 13:45:34;;;;;;;11.85;8.10;;;;;;;-145.63;43.38;38758.28;4982927;28;20037;-66
2024/04/09 13:50:50;;;;;;;15.90;9.40;;;;;;;-145.63;43.80;38766.13;4980544;28;20039;-65
2024/04/09 13:53:27;;;;;;;18.25;9.32;;;;;;;-145.63;44.12;38768.06;4979861;28;20084;-67